Time;durP1;ratioP1;P1;durP2;ratioP2;P2;SDS_P1;SDS_P2;PMS_P1;PMS_P2;Temp;Humidity;BMP_temperature;BMP_pressure;BME280_temperature;BME280_humidity;BME280_pressure;Samples;Min_cycle;Max_cycle;Signal;HPM_P1;HPM_P2
2023/07/25 00:00:27;;;;;;;4.13;3.37;;;;;;;;;;4886835;29;20453;-86
2023/07/25 00:02:53;;;;;;;2.83;2.70;;;;;;;;;;4901222;29;20439;-86
2023/07/25 00:05:19;;;;;;;3.27;3.17;;;;;;;;;;4870209;29;20541;-86
2023/07/25 00:07:45;;;;;;;3.37;3.27;;;;;;;;;;4871623;29;20848;-86
2023/07/25 00:10:11;;;;;;;3.03;2.90;;;;;;;;;;4868213;29;20473;-89
2023/07/25 00:12:38;;;;;;;3.63;3.00;;;;;;;;;;4886277;29;20724;-89
2023/07/25 00:15:04;;;;;;;3.10;2.90;;;;;;;;;;4885324;29;20468;-88
2023/07/25 00:17:30;;;;;;;2.60;2.60;;;;;;;;;;4886045;29;20468;-89
2023/07/25 00:19:56;;;;;;;5.30;2.80;;;;;;;;;;4870648;29;20518;-89
2023/07/25 00:22:22;;;;;;;2.67;2.57;;;;;;;;;;4875717;29;20456;-88
2023/07/25 00:24:48;;;;;;;2.70;2.60;;;;;;;;;;4885569;29;20836;-89
2023/07/25 00:27:14;;;;;;;3.73;3.47;;;;;;;;;;4885965;29;20447;-90
2023/07/25 00:29:40;;;;;;;2.50;2.50;;;;;;;;;;4870669;29;20457;-90
2023/07/25 00:32:06;;;;;;;5.23;3.13;;;;;;;;;;4889360;29;20427;-89
2023/07/25 00:34:32;;;;;;;2.97;2.87;;;;;;;;;;4895014;29;20449;-89
2023/07/25 00:36:58;;;;;;;2.43;2.33;;;;;;;;;;4891619;29;20491;-88
2023/07/25 00:39:24;;;;;;;10.27;3.27;;;;;;;;;;4869983;29;20447;-89
2023/07/25 00:41:50;;;;;;;2.43;2.37;;;;;;;;;;4882663;29;21007;-90
2023/07/25 00:44:16;;;;;;;2.57;2.47;;;;;;;;;;4875668;29;20747;-89
2023/07/25 00:46:43;;;;;;;3.40;2.57;;;;;;;;;;4889959;29;20453;-89
2023/07/25 00:49:09;;;;;;;7.13;3.50;;;;;;;;;;4874359;29;21083;-89
2023/07/25 00:51:35;;;;;;;2.47;2.47;;;;;;;;;;4889644;29;20473;-88
2023/07/25 00:54:01;;;;;;;2.83;2.40;;;;;;;;;;4876187;29;20887;-89
2023/07/25 00:56:27;;;;;;;4.83;2.77;;;;;;;;;;4883872;29;20476;-89
2023/07/25 00:58:54;;;;;;;7.97;3.37;;;;;;;;;;4900072;29;20437;-89
2023/07/25 01:01:20;;;;;;;3.40;3.03;;;;;;;;;;4887800;29;20457;-89
2023/07/25 01:03:46;;;;;;;4.47;2.50;;;;;;;;;;4884389;29;20536;-89
2023/07/25 01:06:13;;;;;;;3.70;3.20;;;;;;;;;;4872101;29;20531;-90
2023/07/25 01:08:48;;;;;;;2.80;2.60;;;;;;;;;;4864417;29;21020;-89
2023/07/25 01:11:14;;;;;;;2.60;2.40;;;;;;;;;;4886737;29;20468;-89
2023/07/25 01:13:40;;;;;;;2.13;2.13;;;;;;;;;;4910903;29;20434;-89
2023/07/25 01:16:06;;;;;;;3.10;2.80;;;;;;;;;;4885821;29;20460;-90
2023/07/25 01:18:32;;;;;;;3.17;2.27;;;;;;;;;;4891680;29;20423;-89
2023/07/25 01:20:58;;;;;;;4.63;2.50;;;;;;;;;;4864200;29;20496;-89
2023/07/25 01:23:24;;;;;;;4.30;3.17;;;;;;;;;;4874827;29;20428;-89
2023/07/25 01:25:50;;;;;;;5.93;3.30;;;;;;;;;;4883342;29;20528;-89
2023/07/25 01:28:16;;;;;;;2.90;2.80;;;;;;;;;;4875721;29;20505;-89
2023/07/25 01:30:42;;;;;;;3.70;2.90;;;;;;;;;;4869814;29;20465;-90
2023/07/25 01:33:08;;;;;;;3.10;2.47;;;;;;;;;;4886446;29;20421;-88
2023/07/25 01:35:34;;;;;;;2.73;2.53;;;;;;;;;;4902474;29;20457;-89
2023/07/25 01:38:00;;;;;;;3.00;2.40;;;;;;;;;;4894101;29;20469;-88
2023/07/25 01:40:26;;;;;;;4.23;2.77;;;;;;;;;;4918134;29;20432;-89
2023/07/25 01:42:52;;;;;;;4.30;2.33;;;;;;;;;;4917534;29;20433;-88
2023/07/25 01:45:18;;;;;;;2.80;2.60;;;;;;;;;;4883185;29;20999;-87
2023/07/25 01:47:44;;;;;;;3.53;3.07;;;;;;;;;;4869649;29;20468;-88
2023/07/25 01:50:10;;;;;;;3.70;3.50;;;;;;;;;;4875420;29;21015;-89
2023/07/25 01:52:36;;;;;;;3.73;2.77;;;;;;;;;;4872479;29;20449;-89
2023/07/25 01:55:02;;;;;;;2.80;2.80;;;;;;;;;;4871156;29;20981;-89
2023/07/25 01:57:28;;;;;;;2.83;2.73;;;;;;;;;;4861028;29;20929;-89
2023/07/25 01:59:54;;;;;;;5.07;3.30;;;;;;;;;;4871502;29;20536;-89
2023/07/25 02:02:20;;;;;;;3.97;3.50;;;;;;;;;;4869789;29;20440;-88
2023/07/25 02:04:46;;;;;;;7.13;3.10;;;;;;;;;;4890467;29;20439;-89
2023/07/25 02:07:12;;;;;;;3.30;3.10;;;;;;;;;;4868763;29;20468;-88
2023/07/25 02:09:38;;;;;;;3.77;3.03;;;;;;;;;;4863755;29;20593;-89
2023/07/25 02:12:05;;;;;;;3.83;3.53;;;;;;;;;;4875626;29;20434;-89
2023/07/25 02:14:31;;;;;;;4.60;3.97;;;;;;;;;;4865817;29;20612;-89
2023/07/25 02:16:57;;;;;;;3.73;3.27;;;;;;;;;;4860433;29;20504;-88
2023/07/25 02:19:23;;;;;;;7.73;3.40;;;;;;;;;;4882629;29;21308;-89
2023/07/25 02:21:49;;;;;;;3.47;3.23;;;;;;;;;;4871324;29;20510;-88
2023/07/25 02:24:15;;;;;;;4.73;3.90;;;;;;;;;;4862882;29;20436;-88
2023/07/25 02:26:41;;;;;;;3.80;3.50;;;;;;;;;;4860510;29;20515;-89
2023/07/25 02:29:07;;;;;;;5.73;3.83;;;;;;;;;;4871566;29;20568;-89
2023/07/25 02:31:33;;;;;;;9.20;3.70;;;;;;;;;;4869387;29;20441;-88
2023/07/25 02:33:59;;;;;;;4.60;4.33;;;;;;;;;;4877112;29;20427;-89
2023/07/25 02:36:25;;;;;;;6.23;4.47;;;;;;;;;;4896043;29;20476;-89
2023/07/25 02:38:51;;;;;;;4.40;4.20;;;;;;;;;;4892961;29;20441;-89
2023/07/25 02:41:17;;;;;;;4.73;4.40;;;;;;;;;;4887456;29;20458;-89
2023/07/25 02:43:43;;;;;;;4.63;4.27;;;;;;;;;;4873202;29;20564;-88
2023/07/25 02:46:09;;;;;;;4.70;4.27;;;;;;;;;;4868346;29;20449;-89
2023/07/25 02:48:35;;;;;;;6.13;4.83;;;;;;;;;;4881837;29;20427;-88
2023/07/25 02:51:01;;;;;;;6.40;4.43;;;;;;;;;;4874266;29;20454;-88
2023/07/25 02:53:26;;;;;;;4.57;4.17;;;;;;;;;;4882835;29;20447;-89
2023/07/25 02:55:56;;;;;;;5.30;5.00;;;;;;;;;;4871574;29;20457;-86
2023/07/25 02:58:23;;;;;;;6.60;4.50;;;;;;;;;;4882409;29;20468;-87
2023/07/25 03:00:49;;;;;;;6.73;4.67;;;;;;;;;;4868597;29;20453;-88
2023/07/25 03:03:15;;;;;;;11.50;5.27;;;;;;;;;;4878653;29;20428;-89
2023/07/25 03:05:41;;;;;;;9.67;5.13;;;;;;;;;;4897349;29;20511;-88
2023/07/25 03:08:07;;;;;;;5.10;4.70;;;;;;;;;;4899630;29;20417;-89
2023/07/25 03:10:33;;;;;;;6.33;5.73;;;;;;;;;;4874313;29;20503;-88
2023/07/25 03:12:59;;;;;;;5.60;5.30;;;;;;;;;;4876665;29;20481;-88
2023/07/25 03:15:25;;;;;;;5.20;4.73;;;;;;;;;;4877970;29;20456;-88
2023/07/25 03:17:51;;;;;;;5.07;4.60;;;;;;;;;;4880703;29;20492;-87
2023/07/25 03:20:17;;;;;;;5.20;4.70;;;;;;;;;;4881240;29;20528;-89
2023/07/25 03:22:43;;;;;;;5.40;4.90;;;;;;;;;;4889099;29;20959;-88
2023/07/25 03:25:09;;;;;;;6.87;5.53;;;;;;;;;;4894016;29;20467;-89
2023/07/25 03:27:35;;;;;;;5.40;5.00;;;;;;;;;;4887515;29;20941;-89
2023/07/25 03:30:01;;;;;;;5.93;5.30;;;;;;;;;;4878037;29;20484;-89
2023/07/25 03:32:27;;;;;;;4.77;4.57;;;;;;;;;;4888962;29;20968;-89
2023/07/25 03:34:53;;;;;;;7.13;6.60;;;;;;;;;;4889121;29;20446;-89
2023/07/25 03:37:19;;;;;;;6.77;4.90;;;;;;;;;;4893379;29;20483;-88
2023/07/25 03:39:45;;;;;;;5.20;4.80;;;;;;;;;;4897154;29;20467;-87
2023/07/25 03:42:11;;;;;;;5.20;4.37;;;;;;;;;;4910614;29;20804;-88
2023/07/25 03:44:37;;;;;;;6.10;5.07;;;;;;;;;;4901521;29;20434;-88
2023/07/25 03:47:03;;;;;;;5.33;4.93;;;;;;;;;;4891729;29;20541;-87
2023/07/25 03:49:29;;;;;;;6.27;4.67;;;;;;;;;;4903065;29;20420;-88
2023/07/25 03:51:55;;;;;;;5.33;4.83;;;;;;;;;;4878917;29;20867;-88
2023/07/25 03:54:23;;;;;;;5.20;5.00;;;;;;;;;;4903699;29;20422;-88
2023/07/25 03:56:50;;;;;;;4.70;4.30;;;;;;;;;;4896576;29;20988;-87
2023/07/25 03:59:16;;;;;;;8.00;4.70;;;;;;;;;;4887879;29;20445;-88
2023/07/25 04:01:42;;;;;;;8.07;5.20;;;;;;;;;;4881416;29;20441;-89
2023/07/25 04:04:08;;;;;;;4.77;4.30;;;;;;;;;;4884342;29;21124;-90
2023/07/25 04:06:34;;;;;;;4.93;4.67;;;;;;;;;;4903199;29;20992;-88
2023/07/25 04:09:00;;;;;;;4.60;4.30;;;;;;;;;;4875639;29;20946;-88
2023/07/25 04:11:26;;;;;;;4.83;4.47;;;;;;;;;;4896385;29;21125;-88
2023/07/25 04:13:52;;;;;;;4.57;4.13;;;;;;;;;;4874848;29;20452;-88
2023/07/25 04:16:18;;;;;;;6.47;5.20;;;;;;;;;;4884573;29;20483;-88
2023/07/25 04:18:44;;;;;;;5.30;4.93;;;;;;;;;;4881375;29;20452;-87
2023/07/25 04:21:10;;;;;;;6.73;5.40;;;;;;;;;;4883590;29;20444;-86
2023/07/25 04:23:37;;;;;;;4.20;3.90;;;;;;;;;;4889191;29;20448;-89
2023/07/25 04:26:03;;;;;;;5.13;4.50;;;;;;;;;;4910348;29;21317;-87
2023/07/25 04:28:28;;;;;;;4.90;4.50;;;;;;;;;;4878169;29;20532;-88
2023/07/25 04:30:54;;;;;;;4.97;4.40;;;;;;;;;;4889529;29;20447;-87
2023/07/25 04:33:20;;;;;;;5.10;4.53;;;;;;;;;;4900783;29;20456;-87
2023/07/25 04:35:46;;;;;;;4.30;4.00;;;;;;;;;;4870356;29;20432;-87
2023/07/25 04:38:13;;;;;;;6.67;5.00;;;;;;;;;;4894076;29;20455;-86
2023/07/25 04:40:39;;;;;;;5.70;4.70;;;;;;;;;;4897797;29;20473;-88
2023/07/25 04:43:05;;;;;;;5.27;4.80;;;;;;;;;;4888186;29;20444;-88
2023/07/25 04:45:31;;;;;;;8.30;5.57;;;;;;;;;;4887411;29;20433;-87
2023/07/25 04:47:57;;;;;;;4.60;4.40;;;;;;;;;;4881233;29;20448;-87
2023/07/25 04:50:23;;;;;;;5.10;4.70;;;;;;;;;;4897803;29;20428;-87
2023/07/25 04:52:49;;;;;;;5.33;5.03;;;;;;;;;;4870639;29;20528;-87
2023/07/25 04:55:15;;;;;;;5.47;5.03;;;;;;;;;;4876377;29;20446;-88
2023/07/25 04:57:41;;;;;;;4.50;4.30;;;;;;;;;;4897458;29;20468;-85
2023/07/25 05:00:07;;;;;;;5.20;4.70;;;;;;;;;;4885316;29;20495;-89
2023/07/25 05:02:33;;;;;;;5.13;4.80;;;;;;;;;;4892792;29;20499;-88
2023/07/25 05:04:59;;;;;;;5.73;5.23;;;;;;;;;;4878630;29;20981;-87
2023/07/25 05:07:25;;;;;;;6.37;4.40;;;;;;;;;;4874584;29;20437;-87
2023/07/25 05:09:51;;;;;;;4.60;4.20;;;;;;;;;;4874232;29;20552;-86
2023/07/25 05:12:17;;;;;;;7.60;3.80;;;;;;;;;;4891486;29;20428;-88
2023/07/25 05:14:43;;;;;;;4.30;4.20;;;;;;;;;;4894054;29;20457;-89
2023/07/25 05:17:09;;;;;;;6.27;4.10;;;;;;;;;;4878112;29;20461;-84
2023/07/25 05:19:35;;;;;;;5.07;4.73;;;;;;;;;;4889199;29;20464;-84
2023/07/25 05:22:01;;;;;;;7.03;4.80;;;;;;;;;;4883587;29;20436;-84
2023/07/25 05:24:27;;;;;;;4.47;4.07;;;;;;;;;;4879298;29;20472;-88
2023/07/25 05:26:53;;;;;;;4.93;4.60;;;;;;;;;;4871994;29;20448;-89
2023/07/25 05:29:19;;;;;;;5.30;4.30;;;;;;;;;;4884400;29;20564;-87
2023/07/25 05:31:45;;;;;;;5.50;4.23;;;;;;;;;;4869540;29;20448;-87
2023/07/25 05:34:11;;;;;;;5.13;3.57;;;;;;;;;;4869617;29;20466;-86
2023/07/25 05:36:37;;;;;;;5.33;3.70;;;;;;;;;;4896683;29;20475;-86
2023/07/25 05:39:03;;;;;;;7.20;4.50;;;;;;;;;;4872620;29;20530;-87
2023/07/25 05:41:29;;;;;;;5.47;5.17;;;;;;;;;;4880404;29;20912;-87
2023/07/25 05:43:55;;;;;;;4.70;4.30;;;;;;;;;;4873088;29;20447;-86
2023/07/25 05:46:21;;;;;;;4.97;4.30;;;;;;;;;;4870469;29;20460;-85
2023/07/25 05:48:46;;;;;;;4.07;3.87;;;;;;;;;;4879470;29;20480;-87
2023/07/25 05:51:12;;;;;;;5.80;5.07;;;;;;;;;;4881028;29;20447;-86
2023/07/25 05:53:38;;;;;;;5.87;5.17;;;;;;;;;;4899126;29;20966;-86
2023/07/25 05:56:04;;;;;;;4.03;3.73;;;;;;;;;;4895704;29;20476;-84
2023/07/25 05:58:30;;;;;;;5.63;3.40;;;;;;;;;;4897946;29;20451;-88
2023/07/25 06:00:56;;;;;;;3.37;3.17;;;;;;;;;;4867612;29;20467;-88
2023/07/25 06:03:22;;;;;;;5.23;3.47;;;;;;;;;;4875867;29;20450;-86
2023/07/25 06:05:48;;;;;;;4.13;3.80;;;;;;;;;;4878888;29;20455;-86
2023/07/25 06:08:14;;;;;;;4.30;4.00;;;;;;;;;;4900956;29;20449;-87
2023/07/25 06:10:41;;;;;;;3.60;3.30;;;;;;;;;;4879309;29;20466;-89
2023/07/25 06:13:07;;;;;;;4.87;3.20;;;;;;;;;;4905640;29;20442;-84
2023/07/25 06:15:36;;;;;;;3.53;3.20;;;;;;;;;;4903199;29;20445;-89
2023/07/25 06:18:02;;;;;;;3.50;3.30;;;;;;;;;;4902810;29;20469;-89
2023/07/25 06:20:28;;;;;;;3.80;3.40;;;;;;;;;;4887749;29;20448;-88
2023/07/25 06:22:59;;;;;;;5.93;5.63;;;;;;;;;;4901736;29;20447;-90
2023/07/25 06:25:26;;;;;;;5.57;4.70;;;;;;;;;;4887467;29;20459;-89
2023/07/25 06:27:52;;;;;;;3.50;3.23;;;;;;;;;;4905808;29;21306;-89
2023/07/25 06:30:21;;;;;;;4.07;3.53;;;;;;;;;;4904235;29;20446;-89
2023/07/25 06:32:47;;;;;;;7.03;3.93;;;;;;;;;;4891457;29;20467;-89
2023/07/25 06:35:13;;;;;;;3.53;3.23;;;;;;;;;;4882751;29;20956;-89
2023/07/25 06:37:40;;;;;;;4.87;3.53;;;;;;;;;;4902259;29;20555;-89
2023/07/25 06:40:06;;;;;;;5.67;3.00;;;;;;;;;;4892762;29;20514;-90
2023/07/25 06:42:32;;;;;;;3.27;2.70;;;;;;;;;;4881246;29;21034;-88
2023/07/25 06:44:58;;;;;;;3.63;3.20;;;;;;;;;;4901184;29;20488;-86
2023/07/25 06:47:25;;;;;;;18.57;15.43;;;;;;;;;;4876289;29;20449;-88
2023/07/25 06:49:53;;;;;;;16.90;13.77;;;;;;;;;;4884837;29;20957;-88
2023/07/25 06:52:19;;;;;;;6.13;4.27;;;;;;;;;;4878687;29;20427;-89
2023/07/25 07:40:43;;;;;;;7.47;3.20;;;;;;;;;;4902080;23;20923;-86
2023/07/25 07:43:09;;;;;;;6.27;4.03;;;;;;;;;;4890065;29;20517;-84
2023/07/25 07:45:35;;;;;;;4.47;3.37;;;;;;;;;;4884525;29;21024;-81
2023/07/25 07:48:01;;;;;;;4.63;2.70;;;;;;;;;;4874783;29;20494;-83
2023/07/25 07:50:29;;;;;;;8.30;2.90;;;;;;;;;;4882599;29;20930;-82
2023/07/25 07:52:56;;;;;;;2.90;2.60;;;;;;;;;;4881082;29;20442;-86
2023/07/25 07:55:22;;;;;;;4.80;2.60;;;;;;;;;;4879276;29;20543;-84
2023/07/25 07:57:48;;;;;;;2.60;2.40;;;;;;;;;;4884350;29;20485;-85
2023/07/25 08:00:15;;;;;;;5.93;2.20;;;;;;;;;;4879667;29;21127;-85
2023/07/25 08:02:42;;;;;;;3.07;2.57;;;;;;;;;;4897302;29;20451;-84
2023/07/25 08:05:08;;;;;;;2.17;1.87;;;;;;;;;;4894057;29;20445;-83
2023/07/25 08:07:34;;;;;;;9.50;3.33;;;;;;;;;;4899734;29;20540;-86
2023/07/25 08:10:00;;;;;;;3.07;2.80;;;;;;;;;;4880987;29;20445;-84
2023/07/25 08:12:26;;;;;;;2.07;2.07;;;;;;;;;;4890916;29;20434;-82
2023/07/25 08:14:52;;;;;;;2.50;2.30;;;;;;;;;;4885473;29;20446;-83
2023/07/25 08:17:19;;;;;;;7.80;3.10;;;;;;;;;;4893386;29;20476;-82
2023/07/25 08:19:45;;;;;;;4.00;2.57;;;;;;;;;;4892056;29;20440;-84
2023/07/25 08:22:11;;;;;;;2.97;2.40;;;;;;;;;;4899969;29;20482;-80
2023/07/25 08:24:38;;;;;;;2.97;2.67;;;;;;;;;;4889657;29;20506;-86
2023/07/25 08:27:04;;;;;;;3.27;2.97;;;;;;;;;;4897112;29;20432;-81
2023/07/25 08:29:30;;;;;;;2.93;2.40;;;;;;;;;;4875868;29;20450;-85
2023/07/25 08:31:56;;;;;;;2.50;2.40;;;;;;;;;;4904432;29;20443;-86
2023/07/25 08:34:22;;;;;;;2.20;2.10;;;;;;;;;;4902090;29;20453;-82
2023/07/25 08:36:48;;;;;;;2.37;2.20;;;;;;;;;;4908358;29;20495;-85
2023/07/25 08:39:13;;;;;;;2.20;2.10;;;;;;;;;;4896520;29;20584;-83
2023/07/25 08:41:43;;;;;;;3.27;1.90;;;;;;;;;;4895114;29;20464;-87
2023/07/25 08:44:10;;;;;;;2.27;2.13;;;;;;;;;;4897200;29;20534;-88
2023/07/25 08:46:36;;;;;;;3.20;1.97;;;;;;;;;;4916453;29;20483;-86
2023/07/25 08:49:03;;;;;;;2.23;2.13;;;;;;;;;;4906614;29;20464;-85
2023/07/25 08:51:33;;;;;;;2.73;2.10;;;;;;;;;;4910836;29;20810;-85
2023/07/25 08:54:26;;;;;;;2.53;2.20;;;;;;;;;;4896045;29;20712;-88
2023/07/25 08:56:52;;;;;;;5.10;2.70;;;;;;;;;;4880987;29;20462;-85
2023/07/25 08:59:18;;;;;;;2.20;2.00;;;;;;;;;;4891943;29;20989;-85
2023/07/25 09:01:45;;;;;;;1.80;1.80;;;;;;;;;;4893490;29;20892;-85
2023/07/25 09:04:11;;;;;;;1.70;1.67;;;;;;;;;;4902777;29;20444;-85
2023/07/25 09:06:37;;;;;;;2.67;2.00;;;;;;;;;;4887686;29;20450;-87
2023/07/25 09:09:04;;;;;;;2.93;2.00;;;;;;;;;;4898056;29;20437;-87
2023/07/25 09:11:33;;;;;;;1.57;1.53;;;;;;;;;;4903021;29;20417;-86
2023/07/25 09:13:59;;;;;;;2.27;1.93;;;;;;;;;;4900495;29;20457;-84
2023/07/25 09:16:27;;;;;;;2.00;1.80;;;;;;;;;;4910050;29;20492;-83
2023/07/25 09:18:53;;;;;;;1.97;1.97;;;;;;;;;;4899696;29;20917;-84
2023/07/25 09:21:19;;;;;;;7.00;2.03;;;;;;;;;;4889473;29;20508;-85
2023/07/25 09:23:52;;;;;;;2.27;2.00;;;;;;;;;;4897695;29;20445;-85
2023/07/25 09:26:21;;;;;;;1.83;1.73;;;;;;;;;;4898838;29;20433;-85
2023/07/25 09:28:51;;;;;;;2.17;2.07;;;;;;;;;;4903091;29;20417;-86
2023/07/25 09:31:17;;;;;;;2.40;2.20;;;;;;;;;;4877517;29;20453;-85
2023/07/25 09:33:46;;;;;;;3.50;1.70;;;;;;;;;;4897522;29;20560;-85
2023/07/25 09:36:12;;;;;;;3.07;1.90;;;;;;;;;;4891915;29;20480;-84
2023/07/25 09:38:47;;;;;;;1.20;1.20;;;;;;;;;;4882452;29;20440;-85
2023/07/25 09:41:13;;;;;;;1.43;1.33;;;;;;;;;;4888518;29;20468;-86
2023/07/25 09:43:39;;;;;;;1.37;1.27;;;;;;;;;;4884771;29;20678;-86
2023/07/25 09:46:11;;;;;;;2.87;1.77;;;;;;;;;;4873012;29;20452;-86
2023/07/25 09:48:40;;;;;;;2.30;2.10;;;;;;;;;;4898172;29;20432;-85
2023/07/25 09:51:06;;;;;;;2.00;1.90;;;;;;;;;;4899009;29;20456;-84
2023/07/25 09:53:32;;;;;;;1.70;1.60;;;;;;;;;;4895032;29;20468;-85
2023/07/25 09:55:58;;;;;;;2.30;1.57;;;;;;;;;;4887164;29;20409;-86
2023/07/25 09:58:25;;;;;;;1.50;1.40;;;;;;;;;;4887287;29;20544;-86
2023/07/25 10:00:51;;;;;;;2.33;2.13;;;;;;;;;;4879213;29;20533;-85
2023/07/25 10:03:20;;;;;;;1.90;1.80;;;;;;;;;;4861907;29;20448;-85
2023/07/25 10:05:46;;;;;;;1.63;1.53;;;;;;;;;;4887088;29;20451;-83
2023/07/25 10:08:12;;;;;;;1.90;1.63;;;;;;;;;;4881072;29;20449;-86
2023/07/25 10:10:40;;;;;;;1.70;1.70;;;;;;;;;;4878052;29;20448;-86
2023/07/25 10:13:06;;;;;;;6.33;5.93;;;;;;;;;;4887275;29;20444;-86
2023/07/25 10:15:32;;;;;;;2.53;2.33;;;;;;;;;;4881321;29;20457;-83
2023/07/25 10:18:02;;;;;;;2.40;2.20;;;;;;;;;;4879073;29;20565;-83
2023/07/25 10:20:28;;;;;;;2.30;2.20;;;;;;;;;;4880832;29;21130;-85
2023/07/25 10:22:54;;;;;;;2.63;2.50;;;;;;;;;;4886943;29;20438;-81
2023/07/25 10:25:29;;;;;;;2.93;2.80;;;;;;;;;;4866642;29;20508;-84
2023/07/25 10:27:58;;;;;;;2.87;2.67;;;;;;;;;;4877500;29;20475;-84
2023/07/25 10:30:27;;;;;;;2.20;1.93;;;;;;;;;;4878153;29;21077;-83
2023/07/25 10:32:54;;;;;;;3.67;2.57;;;;;;;;;;4881466;29;20573;-81
2023/07/25 10:35:49;;;;;;;2.60;2.40;;;;;;;;;;4875677;29;20502;-83
2023/07/25 10:38:21;;;;;;;2.87;2.67;;;;;;;;;;4879790;29;20443;-84
2023/07/25 10:40:51;;;;;;;4.93;2.97;;;;;;;;;;4884539;29;20468;-84
2023/07/25 10:43:17;;;;;;;3.07;2.87;;;;;;;;;;4864094;29;20435;-83
2023/07/25 10:45:50;;;;;;;5.87;2.63;;;;;;;;;;4877599;29;20493;-84
2023/07/25 10:48:28;;;;;;;3.53;2.67;;;;;;;;;;4878647;29;20442;-85
2023/07/25 10:50:54;;;;;;;3.40;3.10;;;;;;;;;;4889898;29;20433;-83
2023/07/25 10:53:24;;;;;;;4.50;3.60;;;;;;;;;;4852299;29;20978;-82
2023/07/25 10:56:05;;;;;;;2.93;2.80;;;;;;;;;;4858629;29;20522;-82
2023/07/25 10:58:31;;;;;;;2.97;2.60;;;;;;;;;;4876357;29;21008;-84
2023/07/25 11:00:58;;;;;;;2.37;2.27;;;;;;;;;;4882165;29;20476;-83
2023/07/25 11:03:27;;;;;;;2.63;2.43;;;;;;;;;;4865599;29;20460;-83
2023/07/25 11:05:53;;;;;;;5.93;2.33;;;;;;;;;;4876722;29;20974;-84
2023/07/25 11:08:19;;;;;;;2.90;2.60;;;;;;;;;;4881977;29;20446;-83
2023/07/25 11:10:45;;;;;;;2.80;2.60;;;;;;;;;;4871951;29;20449;-85
2023/07/25 11:13:12;;;;;;;2.40;2.03;;;;;;;;;;4885042;29;20494;-87
2023/07/25 11:15:39;;;;;;;1.73;1.73;;;;;;;;;;4883646;29;20461;-85
2023/07/25 11:18:06;;;;;;;2.33;2.23;;;;;;;;;;4874421;29;20473;-85
2023/07/25 11:20:32;;;;;;;2.00;1.90;;;;;;;;;;4885700;29;20437;-85
2023/07/25 11:22:58;;;;;;;2.90;2.43;;;;;;;;;;4873386;29;20465;-82
2023/07/25 11:25:24;;;;;;;2.57;2.37;;;;;;;;;;4879512;29;20478;-82
2023/07/25 11:27:51;;;;;;;2.73;2.10;;;;;;;;;;4885427;29;20417;-82
2023/07/25 11:30:20;;;;;;;3.67;2.30;;;;;;;;;;4872241;29;20458;-84
2023/07/25 11:32:50;;;;;;;2.40;2.17;;;;;;;;;;4881440;29;20432;-84
2023/07/25 11:35:16;;;;;;;3.03;2.83;;;;;;;;;;4865513;29;20489;-79
2023/07/25 11:37:43;;;;;;;2.70;2.60;;;;;;;;;;4868151;29;20476;-82
2023/07/25 11:40:19;;;;;;;5.03;4.03;;;;;;;;;;4866763;29;20481;-80
2023/07/25 11:42:50;;;;;;;3.07;2.30;;;;;;;;;;4877642;29;20433;-83
2023/07/25 11:45:16;;;;;;;3.30;3.00;;;;;;;;;;4875893;29;20524;-86
2023/07/25 11:47:43;;;;;;;3.90;3.20;;;;;;;;;;4879549;29;20430;-84
2023/07/25 11:50:10;;;;;;;3.10;2.53;;;;;;;;;;4870228;29;20477;-82
2023/07/25 11:52:36;;;;;;;3.03;2.93;;;;;;;;;;4871292;29;20502;-83
2023/07/25 11:55:03;;;;;;;3.13;2.40;;;;;;;;;;4874524;29;20442;-83
2023/07/25 11:57:29;;;;;;;2.40;2.33;;;;;;;;;;4890465;29;20784;-87
2023/07/25 11:59:56;;;;;;;2.40;2.30;;;;;;;;;;4888933;29;20963;-82
2023/07/25 12:02:26;;;;;;;3.57;2.70;;;;;;;;;;4867384;29;20526;-83
2023/07/25 12:04:52;;;;;;;3.23;2.93;;;;;;;;;;4883600;29;20521;-86
2023/07/25 12:07:18;;;;;;;4.23;2.83;;;;;;;;;;4885515;29;20468;-87
2023/07/25 12:09:51;;;;;;;3.20;2.90;;;;;;;;;;4867555;29;21009;-88
2023/07/25 12:12:17;;;;;;;5.63;2.80;;;;;;;;;;4883159;29;20551;-88
2023/07/25 12:14:56;;;;;;;2.60;2.50;;;;;;;;;;4892758;29;20437;-86
2023/07/25 12:17:22;;;;;;;2.90;2.80;;;;;;;;;;4887083;29;20477;-88
2023/07/25 12:19:53;;;;;;;3.10;2.90;;;;;;;;;;4889682;29;21221;-88
2023/07/25 12:22:19;;;;;;;3.33;2.90;;;;;;;;;;4888067;29;20454;-88
2023/07/25 12:24:46;;;;;;;3.17;2.90;;;;;;;;;;4884354;29;20425;-85
2023/07/25 12:27:18;;;;;;;2.63;2.40;;;;;;;;;;4889868;29;20436;-86
2023/07/25 12:29:44;;;;;;;2.20;2.10;;;;;;;;;;4883954;29;21179;-87
2023/07/25 12:32:13;;;;;;;2.90;2.70;;;;;;;;;;4864197;29;20434;-85
2023/07/25 12:34:39;;;;;;;6.10;2.77;;;;;;;;;;4876262;29;20497;-82
2023/07/25 12:37:05;;;;;;;2.30;2.13;;;;;;;;;;4894041;29;20551;-86
2023/07/25 12:39:31;;;;;;;5.67;4.43;;;;;;;;;;4873902;29;20855;-84
2023/07/25 12:41:57;;;;;;;5.03;2.57;;;;;;;;;;4883492;29;20854;-86
2023/07/25 12:44:23;;;;;;;8.47;3.13;;;;;;;;;;4881710;29;20490;-88
2023/07/25 12:46:48;;;;;;;3.80;3.10;;;;;;;;;;4879616;29;20942;-88
2023/07/25 12:49:14;;;;;;;2.43;2.33;;;;;;;;;;4878005;29;20535;-89
2023/07/25 12:51:40;;;;;;;6.57;2.53;;;;;;;;;;4891426;29;20530;-86
2023/07/25 12:54:06;;;;;;;2.73;2.53;;;;;;;;;;4890203;29;20461;-89
2023/07/25 12:56:36;;;;;;;3.63;2.50;;;;;;;;;;4887012;29;20528;-86
2023/07/25 13:10:53;;;;;;;2.20;2.20;;;;;;;;;;5039623;23;20478;-87
2023/07/25 13:15:55;;;;;;;2.47;2.27;;;;;;;;;;5159115;23;20514;-90
2023/07/25 13:18:21;;;;;;;2.20;2.00;;;;;;;;;;4904666;29;20448;-88
2023/07/25 13:20:47;;;;;;;3.30;2.30;;;;;;;;;;4915736;29;20498;-88
2023/07/25 13:23:13;;;;;;;2.30;2.20;;;;;;;;;;4918757;29;20465;-88
2023/07/25 13:25:40;;;;;;;3.67;2.40;;;;;;;;;;4917566;29;20445;-87
2023/07/25 13:28:06;;;;;;;2.33;2.23;;;;;;;;;;4920646;29;20432;-89
2023/07/25 13:30:32;;;;;;;2.57;1.70;;;;;;;;;;4911094;29;20457;-91
2023/07/25 13:32:58;;;;;;;3.97;2.17;;;;;;;;;;4924142;29;20420;-89
2023/07/25 13:35:24;;;;;;;2.40;2.20;;;;;;;;;;4908358;29;20499;-87
2023/07/25 13:37:50;;;;;;;7.00;2.40;;;;;;;;;;4904824;29;20468;-88
2023/07/25 13:40:16;;;;;;;2.07;1.97;;;;;;;;;;4906963;29;21050;-85
2023/07/25 13:42:42;;;;;;;1.50;1.50;;;;;;;;;;4906730;29;20528;-85
2023/07/25 13:45:08;;;;;;;5.13;2.13;;;;;;;;;;4904343;29;20478;-86
2023/07/25 13:47:34;;;;;;;2.10;2.00;;;;;;;;;;4881888;29;20445;-85
2023/07/25 13:50:02;;;;;;;1.67;1.53;;;;;;;;;;4890815;29;20455;-87
2023/07/25 13:52:28;;;;;;;1.90;1.80;;;;;;;;;;4894875;29;20432;-87
2023/07/25 13:54:55;;;;;;;2.03;1.80;;;;;;;;;;4886537;29;20442;-86
2023/07/25 13:57:21;;;;;;;2.30;1.97;;;;;;;;;;4896727;29;20479;-89
2023/07/25 13:59:47;;;;;;;1.90;1.80;;;;;;;;;;4897138;29;20465;-87
2023/07/25 14:02:13;;;;;;;2.97;2.03;;;;;;;;;;4896768;29;20480;-84
2023/07/25 14:04:39;;;;;;;4.53;2.17;;;;;;;;;;4895207;29;20856;-87
2023/07/25 14:07:05;;;;;;;1.47;1.43;;;;;;;;;;4888261;29;20850;-88
2023/07/25 14:09:31;;;;;;;1.47;1.47;;;;;;;;;;4892894;29;20528;-85
2023/07/25 14:11:57;;;;;;;1.37;1.37;;;;;;;;;;4884495;29;20567;-85
2023/07/25 14:14:23;;;;;;;2.80;2.00;;;;;;;;;;4897560;29;20513;-85
2023/07/25 14:16:49;;;;;;;2.20;2.10;;;;;;;;;;4875198;29;20545;-90
2023/07/25 14:19:15;;;;;;;3.30;2.33;;;;;;;;;;4885956;29;20484;-87
2023/07/25 14:21:42;;;;;;;2.87;2.50;;;;;;;;;;4883711;29;20477;-86
2023/07/25 14:24:08;;;;;;;2.20;2.03;;;;;;;;;;4881679;29;21135;-89
2023/07/25 14:26:34;;;;;;;4.00;1.90;;;;;;;;;;4860452;29;20566;-86
2023/07/25 14:29:02;;;;;;;1.60;1.53;;;;;;;;;;4873281;29;20444;-85
2023/07/25 14:31:29;;;;;;;4.97;1.83;;;;;;;;;;4877525;29;20456;-88
2023/07/25 14:33:55;;;;;;;2.10;2.00;;;;;;;;;;4877892;29;21276;-86
2023/07/25 14:36:21;;;;;;;2.17;1.90;;;;;;;;;;4872777;29;20462;-87
2023/07/25 14:38:47;;;;;;;2.40;1.60;;;;;;;;;;4872117;29;20810;-87
2023/07/25 14:41:13;;;;;;;1.90;1.80;;;;;;;;;;4872933;29;20558;-85
2023/07/25 14:43:39;;;;;;;1.40;1.40;;;;;;;;;;4873515;29;20438;-87
2023/07/25 14:46:05;;;;;;;2.20;1.50;;;;;;;;;;4877738;29;20962;-89
2023/07/25 14:48:31;;;;;;;3.10;2.00;;;;;;;;;;4869297;29;20452;-83
2023/07/25 14:50:57;;;;;;;2.47;2.13;;;;;;;;;;4874841;29;20445;-87
2023/07/25 14:53:24;;;;;;;1.40;1.40;;;;;;;;;;4884697;29;20504;-86
2023/07/25 14:55:50;;;;;;;3.30;2.07;;;;;;;;;;4875053;29;20578;-87
2023/07/25 14:58:16;;;;;;;1.50;1.40;;;;;;;;;;4880941;29;20470;-88
2023/07/25 15:00:43;;;;;;;1.60;1.20;;;;;;;;;;4881096;29;20450;-85
2023/07/25 15:03:09;;;;;;;2.80;1.67;;;;;;;;;;4882365;29;20521;-89
2023/07/25 15:05:35;;;;;;;1.67;1.57;;;;;;;;;;4884208;29;20468;-82
2023/07/25 15:08:04;;;;;;;1.47;1.37;;;;;;;;;;4886394;29;20449;-88
2023/07/25 15:10:30;;;;;;;1.63;1.60;;;;;;;;;;4878297;29;20432;-89
2023/07/25 15:12:56;;;;;;;2.90;1.70;;;;;;;;;;4881124;29;20430;-87
2023/07/25 15:15:22;;;;;;;1.70;1.60;;;;;;;;;;4878442;29;20481;-88
2023/07/25 15:17:48;;;;;;;8.43;7.57;;;;;;;;;;4899448;29;20492;-87
2023/07/25 15:20:14;;;;;;;1.40;1.40;;;;;;;;;;4899602;29;21037;-87
2023/07/25 15:22:40;;;;;;;2.47;1.17;;;;;;;;;;4891123;29;20558;-87
2023/07/25 15:25:06;;;;;;;1.60;1.50;;;;;;;;;;4898007;29;20578;-88
2023/07/25 15:27:32;;;;;;;2.53;1.70;;;;;;;;;;4894525;29;20471;-89
2023/07/25 15:29:58;;;;;;;1.37;1.37;;;;;;;;;;4900566;29;20452;-90
2023/07/25 15:32:24;;;;;;;1.53;1.40;;;;;;;;;;4907882;29;20444;-85
2023/07/25 15:34:50;;;;;;;1.30;1.20;;;;;;;;;;4885868;29;20444;-89
2023/07/25 15:37:16;;;;;;;1.17;1.17;;;;;;;;;;4915139;29;20488;-87
2023/07/25 15:39:42;;;;;;;1.13;1.03;;;;;;;;;;4899854;29;20838;-86